Time;durP1;ratioP1;P1;durP2;ratioP2;P2;SDS_P1;SDS_P2;PMS_P1;PMS_P2;Temp;Humidity;BMP_temperature;BMP_pressure;BME280_temperature;BME280_humidity;BME280_pressure;Samples;Min_cycle;Max_cycle;Signal;HPM_P1;HPM_P2
2021/05/19 00:01:22;;;;;;;2.80;1.38;;;8.90;99.90;;;;;;5040589;28;20120;-88
2021/05/19 00:03:48;;;;;;;3.85;1.63;;;10.70;99.90;;;;;;5039489;28;20060;-89
2021/05/19 00:06:14;;;;;;;3.85;1.88;;;12.50;99.90;;;;;;5039851;28;20028;-88
2021/05/19 00:08:40;;;;;;;6.88;1.80;;;8.80;99.90;;;;;;5045449;28;20028;-89
2021/05/19 00:11:06;;;;;;;6.22;1.77;;;8.80;99.90;;;;;;5039915;28;20053;-88
2021/05/19 00:13:33;;;;;;;4.95;1.70;;;8.70;99.90;;;;;;5040229;28;20063;-88
2021/05/19 00:15:59;;;;;;;1.80;1.13;;;8.60;99.90;;;;;;5039300;28;20056;-88
2021/05/19 00:18:25;;;;;;;2.17;1.20;;;8.60;99.90;;;;;;5058060;28;20416;-88
2021/05/19 00:20:51;;;;;;;4.35;1.52;;;8.50;99.90;;;;;;5039452;28;20469;-89
2021/05/19 00:23:20;;;;;;;6.43;2.45;;;8.50;99.90;;;;;;5039629;28;20120;-88
2021/05/19 00:25:46;;;;;;;4.55;1.42;;;8.40;99.90;;;;;;5038986;28;20032;-89
2021/05/19 00:28:11;;;;;;;4.03;1.77;;;8.40;99.90;;;;;;5039422;28;20028;-88
2021/05/19 00:30:38;;;;;;;4.63;2.33;;;8.40;99.90;;;;;;5076673;28;20021;-88
2021/05/19 00:33:04;;;;;;;3.20;2.08;;;8.40;99.90;;;;;;5054961;28;20016;-87
2021/05/19 00:35:30;;;;;;;4.78;1.83;;;8.30;99.90;;;;;;5061980;28;20033;-88
2021/05/19 00:37:56;;;;;;;3.53;1.75;;;8.40;99.90;;;;;;5039023;28;20036;-88
2021/05/19 00:40:21;;;;;;;4.30;1.67;;;8.50;99.90;;;;;;5055888;28;20446;-88
2021/05/19 00:42:47;;;;;;;4.28;2.33;;;8.60;99.90;;;;;;5054956;28;20035;-89
2021/05/19 00:45:13;;;;;;;3.97;2.28;;;8.70;99.90;;;;;;5039316;28;20032;-88
2021/05/19 00:47:43;;;;;;;3.38;2.28;;;8.70;99.90;;;;;;5056746;28;20033;-88
2021/05/19 00:50:21;;;;;;;2.72;1.77;;;8.80;99.90;;;;;;5057128;28;20028;-88
2021/05/19 00:52:47;;;;;;;4.13;2.13;;;8.80;99.90;;;;;;5040982;28;20024;-88
2021/05/19 00:55:13;;;;;;;6.28;2.83;;;8.90;99.90;;;;;;5039891;28;20784;-87
2021/05/19 00:57:40;;;;;;;4.75;2.63;;;8.90;99.90;;;;;;5039303;28;20052;-88
2021/05/19 01:00:10;;;;;;;7.80;2.78;;;9.00;99.90;;;;;;5059484;28;20043;-89
2021/05/19 01:02:36;;;;;;;4.88;2.85;;;9.10;99.90;;;;;;5023882;28;20020;-86
2021/05/19 01:05:06;;;;;;;4.60;2.67;;;9.20;99.90;;;;;;5038899;28;20611;-88
2021/05/19 01:07:34;;;;;;;5.78;2.75;;;9.30;99.90;;;;;;5039019;28;20040;-88
2021/05/19 01:09:59;;;;;;;5.80;2.72;;;9.20;99.90;;;;;;5040152;28;20509;-87
2021/05/19 01:12:26;;;;;;;4.70;2.67;;;9.10;99.90;;;;;;5056152;28;20033;-88
2021/05/19 01:14:53;;;;;;;5.03;2.72;;;9.00;99.90;;;;;;5038086;28;20143;-88
2021/05/19 01:17:21;;;;;;;6.45;3.53;;;10.90;99.90;;;;;;5039201;28;20021;-88
2021/05/19 01:19:49;;;;;;;7.95;3.63;;;8.20;99.90;;;;;;5038355;28;20063;-88
2021/05/19 01:22:29;;;;;;;5.43;3.10;;;12.70;99.90;;;;;;5056627;28;20021;-88
2021/05/19 01:25:01;;;;;;;5.10;3.17;;;11.80;99.90;;;;;;5055555;28;20025;-88
2021/05/19 01:27:27;;;;;;;6.72;3.35;;;9.70;99.90;;;;;;5038451;28;20539;-88
2021/05/19 01:29:56;;;;;;;5.65;3.05;;;12.60;99.90;;;;;;5038327;28;20083;-87
2021/05/19 01:32:22;;;;;;;6.00;3.08;;;9.20;99.90;;;;;;5037887;28;20116;-88
2021/05/19 01:34:48;;;;;;;7.53;2.90;;;8.80;99.90;;;;;;5062385;28;20029;-87
2021/05/19 01:37:15;;;;;;;6.50;3.90;;;11.30;99.90;;;;;;5037966;28;20103;-88
2021/05/19 01:39:44;;;;;;;11.43;4.07;;;9.20;99.90;;;;;;5046027;28;20494;-87
2021/05/19 01:42:09;;;;;;;12.13;3.55;;;9.00;99.90;;;;;;5037764;28;20025;-88
2021/05/19 01:44:36;;;;;;;9.63;3.58;;;11.10;99.90;;;;;;5055457;28;20031;-88
2021/05/19 01:47:03;;;;;;;9.50;3.72;;;10.60;99.90;;;;;;5055770;28;20474;-87
2021/05/19 01:49:31;;;;;;;8.70;3.80;;;12.90;99.90;;;;;;5045901;28;20489;-88
2021/05/19 01:52:00;;;;;;;7.30;2.90;;;9.00;99.90;;;;;;5056067;28;20048;-88
2021/05/19 01:54:28;;;;;;;8.20;3.65;;;8.40;99.90;;;;;;5036761;28;20025;-88
2021/05/19 01:56:54;;;;;;;10.85;3.75;;;9.80;99.90;;;;;;5055434;28;20049;-89
2021/05/19 01:59:20;;;;;;;9.30;3.90;;;8.30;99.90;;;;;;5055942;28;20017;-86
2021/05/19 02:01:45;;;;;;;9.05;3.83;;;8.20;99.90;;;;;;5037414;28;20075;-87
2021/05/19 02:04:13;;;;;;;12.65;4.05;;;8.20;99.90;;;;;;5037148;28;20497;-90
2021/05/19 02:06:47;;;;;;;9.13;4.10;;;7.80;99.90;;;;;;5052972;28;20055;-89
2021/05/19 02:09:16;;;;;;;8.77;4.10;;;8.40;99.90;;;;;;5051074;28;20025;-89
2021/05/19 02:11:41;;;;;;;10.25;3.88;;;8.70;99.90;;;;;;5037145;28;20091;-87
2021/05/19 02:14:07;;;;;;;10.38;4.38;;;8.60;99.90;;;;;;5055208;28;20482;-89
2021/05/19 02:16:33;;;;;;;16.85;4.82;;;8.70;99.90;;;;;;5036881;28;20060;-89
2021/05/19 02:18:59;;;;;;;8.25;3.88;;;8.50;99.90;;;;;;5050774;28;20136;-88
2021/05/19 02:21:25;;;;;;;14.93;5.38;;;8.80;99.90;;;;;;5055041;28;20065;-88
2021/05/19 02:23:50;;;;;;;8.00;3.97;;;8.50;99.90;;;;;;5037086;28;20020;-88
2021/05/19 02:26:16;;;;;;;9.57;4.38;;;11.00;99.90;;;;;;5039474;28;20032;-89
2021/05/19 02:28:42;;;;;;;23.67;5.00;;;8.70;99.90;;;;;;5037413;28;20090;-89
2021/05/19 02:31:08;;;;;;;14.05;4.85;;;8.60;99.90;;;;;;5054962;28;20390;-87
2021/05/19 02:33:33;;;;;;;9.55;4.32;;;8.70;99.90;;;;;;5037013;28;20025;-87
2021/05/19 02:36:00;;;;;;;10.77;5.03;;;9.70;99.90;;;;;;5037218;28;20032;-88
2021/05/19 02:38:34;;;;;;;15.02;5.18;;;12.80;99.90;;;;;;5065934;28;20024;-88
2021/05/19 02:41:00;;;;;;;11.98;5.00;;;10.50;99.90;;;;;;5038024;28;20033;-88
2021/05/19 02:43:25;;;;;;;13.98;5.20;;;8.80;99.90;;;;;;5036976;28;20021;-89
2021/05/19 02:45:51;;;;;;;18.90;6.07;;;8.20;99.90;;;;;;5036625;28;20127;-88
2021/05/19 02:48:17;;;;;;;14.20;6.60;;;11.00;99.90;;;;;;5056123;28;20111;-88
2021/05/19 02:50:42;;;;;;;16.73;7.05;;;9.20;99.90;;;;;;5040436;28;20021;-88
2021/05/19 02:53:08;;;;;;;16.42;6.88;;;9.30;99.90;;;;;;5054510;28;20013;-87
2021/05/19 02:55:34;;;;;;;15.38;6.72;;;9.20;99.90;;;;;;5036151;28;20063;-89
2021/05/19 02:58:00;;;;;;;16.17;6.95;;;9.50;99.90;;;;;;5036420;28;20108;-89
2021/05/19 03:00:26;;;;;;;18.38;6.40;;;9.30;99.90;;;;;;5036570;28;20052;-89
2021/05/19 03:02:51;;;;;;;23.15;8.20;;;9.60;99.90;;;;;;5039439;28;20032;-89
2021/05/19 03:05:17;;;;;;;17.35;9.18;;;10.60;99.90;;;;;;5053175;28;20074;-88
2021/05/19 03:07:44;;;;;;;17.33;8.20;;;9.80;99.90;;;;;;5066234;28;20035;-89
2021/05/19 03:10:12;;;;;;;20.23;7.88;;;13.70;99.90;;;;;;5036189;28;20039;-89
2021/05/19 03:12:37;;;;;;;23.60;8.75;;;9.90;99.90;;;;;;5036070;28;20064;-89
2021/05/19 03:15:05;;;;;;;18.70;9.02;;;9.70;99.90;;;;;;5036162;28;20494;-89
2021/05/19 03:17:30;;;;;;;18.13;8.90;;;10.00;99.90;;;;;;5047900;28;20111;-89
2021/05/19 03:19:56;;;;;;;24.92;8.80;;;11.10;99.90;;;;;;5056173;28;20094;-89
2021/05/19 03:22:21;;;;;;;25.30;9.75;;;10.00;99.90;;;;;;5038328;28;20057;-89
2021/05/19 03:24:47;;;;;;;22.08;10.57;;;9.80;99.90;;;;;;5054121;28;20025;-90
2021/05/19 03:27:16;;;;;;;19.48;9.57;;;9.60;99.90;;;;;;5055083;28;20049;-89
2021/05/19 03:29:42;;;;;;;16.83;9.15;;;10.10;99.90;;;;;;5057480;28;20028;-88
2021/05/19 03:32:07;;;;;;;17.33;8.60;;;9.50;99.90;;;;;;5035852;28;20531;-88
2021/05/19 03:34:33;;;;;;;15.95;8.30;;;9.50;99.90;;;;;;5036007;28;20032;-88
2021/05/19 03:36:59;;;;;;;20.73;8.88;;;10.00;99.90;;;;;;5038021;28;20025;-88
2021/05/19 03:39:25;;;;;;;20.95;8.32;;;12.20;99.90;;;;;;5048744;28;20397;-87
2021/05/19 03:41:51;;;;;;;19.73;9.18;;;10.00;99.90;;;;;;5039902;28;20029;-89
2021/05/19 03:44:17;;;;;;;18.42;8.77;;;10.10;99.90;;;;;;5036243;28;20112;-87
2021/05/19 03:46:42;;;;;;;21.02;9.32;;;10.10;99.90;;;;;;5036017;28;20044;-88
2021/05/19 03:49:09;;;;;;;22.67;7.93;;;10.30;99.90;;;;;;5035673;28;20029;-87
2021/05/19 03:51:35;;;;;;;15.63;8.45;;;10.20;99.90;;;;;;5035758;28;20017;-88
2021/05/19 03:54:02;;;;;;;14.13;8.15;;;10.20;99.90;;;;;;5038530;28;20056;-89
2021/05/19 03:56:28;;;;;;;19.27;8.25;;;10.20;99.90;;;;;;5035806;28;20017;-88
2021/05/19 03:58:54;;;;;;;17.88;7.95;;;10.10;99.90;;;;;;5054787;28;20382;-89
2021/05/19 04:01:19;;;;;;;20.13;7.65;;;10.20;99.90;;;;;;5036353;28;20014;-89
2021/05/19 04:03:45;;;;;;;19.70;8.10;;;10.10;99.90;;;;;;5036176;28;20102;-88
2021/05/19 04:06:11;;;;;;;16.63;8.15;;;10.10;99.90;;;;;;5082172;23;20059;-90
2021/05/19 04:08:40;;;;;;;18.55;7.40;;;10.10;99.90;;;;;;5059583;28;20015;-89
2021/05/19 04:11:08;;;;;;;18.33;8.20;;;10.20;99.90;;;;;;5058500;28;20012;-88
2021/05/19 04:13:35;;;;;;;15.75;7.72;;;10.10;99.90;;;;;;5057902;28;20531;-88
2021/05/19 04:16:01;;;;;;;13.05;7.13;;;10.10;99.90;;;;;;5059065;28;20491;-89
2021/05/19 04:18:27;;;;;;;12.48;6.72;;;12.00;99.90;;;;;;5059805;28;20030;-87
2021/05/19 04:20:53;;;;;;;18.55;8.05;;;9.50;99.90;;;;;;5059142;28;20025;-86
2021/05/19 04:23:21;;;;;;;19.60;7.75;;;10.00;99.90;;;;;;5039508;28;20063;-87
2021/05/19 04:25:47;;;;;;;18.55;6.78;;;10.00;99.90;;;;;;5051631;28;20035;-88
2021/05/19 04:28:13;;;;;;;14.07;6.50;;;10.00;99.90;;;;;;5059959;28;20021;-89
2021/05/19 04:30:38;;;;;;;15.52;6.25;;;9.80;99.90;;;;;;5073346;28;20021;-88
2021/05/19 04:33:05;;;;;;;19.13;6.35;;;9.80;99.90;;;;;;5057763;28;20112;-88
2021/05/19 04:35:31;;;;;;;11.02;5.85;;;9.80;99.90;;;;;;5056008;28;20028;-88
2021/05/19 04:37:58;;;;;;;15.52;7.13;;;9.60;99.90;;;;;;5057544;28;20031;-87
2021/05/19 04:40:23;;;;;;;15.10;7.55;;;12.90;99.90;;;;;;5057489;28;20086;-89
2021/05/19 04:42:49;;;;;;;14.10;6.85;;;8.50;99.90;;;;;;5057509;28;20033;-89
2021/05/19 04:45:15;;;;;;;15.23;6.28;;;9.70;99.90;;;;;;5045149;28;20029;-89
2021/05/19 04:47:40;;;;;;;15.60;7.03;;;8.90;99.90;;;;;;5042506;28;20374;-88
2021/05/19 04:50:09;;;;;;;13.98;5.72;;;9.50;99.90;;;;;;5042968;28;20028;-88
2021/05/19 04:52:34;;;;;;;14.73;5.78;;;9.60;99.90;;;;;;5039014;28;20024;-87
2021/05/19 04:55:04;;;;;;;12.55;6.45;;;9.30;99.90;;;;;;5062285;28;20020;-87
2021/05/19 04:57:30;;;;;;;12.38;5.15;;;13.60;99.90;;;;;;5078875;28;20016;-87
2021/05/19 04:59:55;;;;;;;15.27;6.18;;;9.60;99.90;;;;;;5043786;28;20032;-88
2021/05/19 05:02:21;;;;;;;14.95;6.03;;;9.60;99.90;;;;;;5038704;28;20044;-88
2021/05/19 05:04:47;;;;;;;15.57;6.50;;;13.30;99.90;;;;;;5059998;28;20087;-88
2021/05/19 05:07:12;;;;;;;14.38;5.55;;;8.80;99.90;;;;;;5078525;28;20023;-88
2021/05/19 05:09:38;;;;;;;13.40;6.07;;;8.40;99.90;;;;;;5049289;28;20438;-88
2021/05/19 05:12:03;;;;;;;13.60;5.45;;;10.30;99.90;;;;;;5057098;28;20025;-86
2021/05/19 05:14:29;;;;;;;14.60;5.40;;;10.30;99.90;;;;;;5056808;28;20470;-88
2021/05/19 05:16:55;;;;;;;11.40;5.22;;;10.30;99.90;;;;;;5053224;28;20023;-87
2021/05/19 05:19:20;;;;;;;11.23;4.82;;;13.70;99.90;;;;;;5066766;28;20140;-89
2021/05/19 05:21:46;;;;;;;19.17;6.03;;;10.80;99.90;;;;;;5057748;28;20040;-86
2021/05/19 05:24:12;;;;;;;17.73;4.50;;;10.50;99.90;;;;;;5076211;28;20037;-88
2021/05/19 05:26:37;;;;;;;11.15;5.32;;;10.20;99.90;;;;;;5057687;28;20107;-88
2021/05/19 05:29:03;;;;;;;9.25;4.75;;;11.00;99.90;;;;;;5041858;28;20536;-88
2021/05/19 05:31:29;;;;;;;11.77;4.60;;;11.30;99.90;;;;;;5046165;28;20024;-88
2021/05/19 05:33:54;;;;;;;8.68;4.53;;;11.50;99.90;;;;;;5056121;28;20146;-88
2021/05/19 05:36:20;;;;;;;12.65;4.60;;;12.50;99.90;;;;;;5073451;28;20118;-86
2021/05/19 05:38:49;;;;;;;9.65;4.68;;;11.70;99.90;;;;;;5057883;28;20469;-87
2021/05/19 05:41:14;;;;;;;10.63;4.55;;;11.80;99.90;;;;;;5075019;28;20474;-86
2021/05/19 05:43:40;;;;;;;11.93;4.47;;;12.00;99.90;;;;;;5038936;28;20025;-86
2021/05/19 05:46:05;;;;;;;14.32;5.47;;;12.20;99.90;;;;;;5047622;28;20029;-87
2021/05/19 05:48:31;;;;;;;13.52;4.47;;;12.60;99.90;;;;;;5048255;28;20449;-86
2021/05/19 05:50:59;;;;;;;13.82;4.45;;;12.50;99.90;;;;;;5052533;28;20028;-86
2021/05/19 05:53:25;;;;;;;13.33;5.07;;;12.60;99.90;;;;;;5056796;28;20031;-87
2021/05/19 05:55:50;;;;;;;10.82;4.75;;;12.80;99.90;;;;;;5058811;28;20111;-87
2021/05/19 05:58:16;;;;;;;14.27;4.88;;;12.70;99.90;;;;;;5057353;28;20043;-87
2021/05/19 06:00:42;;;;;;;11.45;4.55;;;12.70;99.90;;;;;;5072287;28;20021;-87
2021/05/19 06:03:07;;;;;;;14.35;4.25;;;15.10;99.90;;;;;;5041067;28;20470;-87
2021/05/19 06:05:35;;;;;;;12.18;5.32;;;12.80;99.90;;;;;;5054154;28;20033;-88
2021/05/19 06:08:03;;;;;;;12.90;5.50;;;15.40;99.90;;;;;;5038425;28;20021;-87
2021/05/19 06:10:29;;;;;;;17.67;5.88;;;12.40;99.90;;;;;;5037833;28;20021;-88
2021/05/19 06:12:55;;;;;;;9.65;4.47;;;12.10;99.90;;;;;;5067530;28;20024;-88
2021/05/19 06:15:20;;;;;;;10.10;5.40;;;12.20;99.90;;;;;;5094862;28;20024;-88
2021/05/19 06:17:46;;;;;;;17.45;6.68;;;12.00;99.90;;;;;;5096035;28;20026;-88
2021/05/19 06:20:13;;;;;;;21.48;5.55;;;11.90;99.90;;;;;;5063506;28;20040;-88
2021/05/19 06:22:39;;;;;;;14.25;6.40;;;11.80;99.90;;;;;;5056919;28;20135;-89
2021/05/19 06:25:05;;;;;;;19.05;6.53;;;11.80;99.90;;;;;;5057013;28;20033;-88
2021/05/19 06:27:31;;;;;;;15.23;6.05;;;11.80;99.90;;;;;;5074783;28;20020;-89
2021/05/19 06:29:56;;;;;;;16.88;7.47;;;11.60;99.90;;;;;;5057202;28;20029;-88
2021/05/19 06:32:22;;;;;;;18.48;7.05;;;11.60;99.90;;;;;;5061077;28;20017;-87
2021/05/19 06:34:48;;;;;;;18.38;6.95;;;11.90;99.90;;;;;;5069073;28;20101;-87
2021/05/19 06:37:13;;;;;;;19.00;6.47;;;11.90;99.90;;;;;;5061336;28;20027;-87
2021/05/19 06:39:39;;;;;;;18.67;8.13;;;12.10;99.90;;;;;;5077998;28;20027;-87
2021/05/19 06:42:05;;;;;;;16.67;7.38;;;12.10;99.90;;;;;;5058466;28;20028;-86
2021/05/19 06:44:30;;;;;;;16.88;7.45;;;12.10;99.90;;;;;;5077546;28;20025;-86
2021/05/19 06:46:56;;;;;;;24.48;6.93;;;12.00;99.90;;;;;;5061415;28;20060;-87
2021/05/19 06:49:22;;;;;;;16.52;7.32;;;11.90;99.90;;;;;;5060085;28;20025;-85
2021/05/19 06:51:50;;;;;;;16.15;7.72;;;12.00;99.90;;;;;;5061227;28;20020;-86
2021/05/19 06:54:16;;;;;;;;;;;12.00;99.90;;;;;;5083559;28;20511;-86
2021/05/19 06:56:45;;;;;;;17.52;7.10;;;11.90;99.90;;;;;;5081162;28;19905;-86
2021/05/19 06:59:17;;;;;;;15.38;7.93;;;12.10;99.90;;;;;;5063988;28;20099;-86
2021/05/19 07:01:43;;;;;;;21.70;8.70;;;12.10;99.90;;;;;;5081328;28;20024;-86
2021/05/19 07:04:09;;;;;;;25.00;8.68;;;12.10;99.90;;;;;;5063053;28;20029;-86
2021/05/19 07:06:35;;;;;;;18.38;8.77;;;12.10;99.90;;;;;;5059550;28;20094;-86
2021/05/19 07:09:01;;;;;;;21.15;8.85;;;12.10;99.90;;;;;;5060379;28;20042;-86
2021/05/19 07:11:27;;;;;;;19.65;8.80;;;12.10;99.90;;;;;;5060311;28;20477;-86
2021/05/19 07:13:55;;;;;;;16.23;7.68;;;12.00;99.90;;;;;;5075554;28;20032;-85
2021/05/19 07:16:24;;;;;;;22.15;8.57;;;11.90;99.90;;;;;;5058147;28;20043;-86
2021/05/19 07:18:50;;;;;;;18.00;9.07;;;14.90;99.90;;;;;;5057201;28;20112;-85
2021/05/19 07:21:16;;;;;;;19.95;9.85;;;12.10;99.90;;;;;;5075813;28;20504;-87
2021/05/19 07:23:42;;;;;;;23.40;10.10;;;12.40;99.90;;;;;;5058033;28;20025;-88
2021/05/19 07:26:07;;;;;;;26.10;10.85;;;12.60;99.90;;;;;;5057820;28;20443;-87
2021/05/19 07:28:33;;;;;;;20.27;10.27;;;12.70;99.90;;;;;;5081708;28;20038;-88
2021/05/19 07:30:59;;;;;;;18.67;8.77;;;13.20;99.90;;;;;;5065391;28;20013;-88
2021/05/19 07:33:24;;;;;;;21.00;9.13;;;13.00;99.90;;;;;;5083381;28;20024;-87
2021/05/19 07:35:50;;;;;;;19.38;9.43;;;13.20;99.90;;;;;;5059830;28;20090;-87
2021/05/19 07:38:16;;;;;;;20.67;9.07;;;13.30;99.90;;;;;;5058042;28;20092;-88
2021/05/19 07:40:42;;;;;;;25.08;9.13;;;13.50;99.90;;;;;;5057553;28;20090;-88
2021/05/19 07:43:07;;;;;;;20.38;9.98;;;13.50;99.90;;;;;;5075528;28;20032;-87
2021/05/19 07:45:34;;;;;;;18.75;8.57;;;16.00;99.90;;;;;;5058157;28;20385;-86
2021/05/19 07:48:00;;;;;;;19.42;8.38;;;14.40;99.90;;;;;;5057840;28;20028;-87
2021/05/19 07:50:26;;;;;;;18.23;9.32;;;13.10;99.90;;;;;;5058269;28;20059;-86
2021/05/19 07:52:53;;;;;;;23.20;9.25;;;14.20;99.90;;;;;;5065238;28;20091;-86
2021/05/19 07:56:03;;;;;;;20.67;8.48;;;14.70;99.90;;;;;;5082279;28;20029;-86
2021/05/19 07:58:31;;;;;;;14.38;6.85;;;14.80;99.90;;;;;;5072810;28;20039;-86
2021/05/19 08:01:08;;;;;;;15.50;6.43;;;15.20;99.90;;;;;;5083224;28;20086;-86
2021/05/19 08:03:34;;;;;;;15.52;7.05;;;15.00;99.90;;;;;;5084313;28;20024;-85
2021/05/19 08:05:59;;;;;;;19.38;6.90;;;15.10;99.90;;;;;;5067180;28;20032;-85
2021/05/19 08:08:25;;;;;;;18.23;6.45;;;15.20;99.90;;;;;;5065088;28;20066;-85
2021/05/19 08:10:51;;;;;;;18.27;6.70;;;14.60;99.90;;;;;;5061421;28;20024;-87
2021/05/19 08:13:18;;;;;;;21.77;6.55;;;14.40;99.90;;;;;;5061475;28;20020;-86
2021/05/19 08:15:44;;;;;;;15.38;6.55;;;14.30;99.90;;;;;;5061654;28;20416;-87
2021/05/19 08:18:10;;;;;;;17.58;6.93;;;13.90;99.90;;;;;;5060786;28;20020;-88
2021/05/19 08:20:37;;;;;;;15.05;7.30;;;13.90;99.90;;;;;;5078701;28;20031;-86
2021/05/19 08:23:03;;;;;;;19.25;6.90;;;13.70;99.90;;;;;;5060554;28;20031;-86
2021/05/19 08:25:28;;;;;;;16.88;6.97;;;13.70;99.90;;;;;;5060730;28;20051;-86
2021/05/19 08:27:55;;;;;;;14.63;6.65;;;13.80;99.90;;;;;;5061988;28;20017;-86
2021/05/19 08:30:21;;;;;;;14.43;6.93;;;14.00;99.90;;;;;;5060679;28;20054;-86
2021/05/19 08:32:46;;;;;;;17.25;6.82;;;16.40;99.90;;;;;;5079400;28;20104;-87
2021/05/19 08:35:13;;;;;;;16.08;6.53;;;14.40;99.90;;;;;;5061267;28;20020;-87
2021/05/19 08:37:39;;;;;;;16.23;5.85;;;14.60;99.90;;;;;;5062476;28;20432;-86
2021/05/19 08:40:06;;;;;;;14.35;5.38;;;14.50;99.90;;;;;;5061889;28;20024;-86
2021/05/19 08:42:38;;;;;;;15.82;6.47;;;14.50;99.90;;;;;;5063664;28;20050;-84
2021/05/19 08:45:06;;;;;;;15.98;6.15;;;14.40;99.90;;;;;;5065639;28;20028;-84
2021/05/19 08:47:32;;;;;;;18.17;6.22;;;14.10;99.90;;;;;;5065498;28;20024;-83
2021/05/19 08:49:57;;;;;;;17.48;7.80;;;14.90;99.90;;;;;;5065943;28;20012;-84
2021/05/19 08:52:23;;;;;;;13.70;7.05;;;13.70;99.90;;;;;;5065118;28;20017;-84
2021/05/19 08:54:51;;;;;;;16.55;6.10;;;13.60;99.90;;;;;;5064924;28;20044;-85
2021/05/19 08:57:18;;;;;;;16.10;6.20;;;13.50;99.90;;;;;;5083573;28;20012;-85
2021/05/19 08:59:43;;;;;;;18.55;8.30;;;13.40;99.90;;;;;;5064450;28;20116;-84
2021/05/19 09:02:16;;;;;;;18.80;8.07;;;13.30;99.90;;;;;;5065345;28;20055;-84
2021/05/19 09:04:43;;;;;;;29.55;9.05;;;13.20;99.90;;;;;;5062971;28;20116;-85
2021/05/19 09:07:18;;;;;;;21.65;7.75;;;13.00;99.90;;;;;;5065707;28;20489;-84
2021/05/19 09:09:45;;;;;;;19.98;7.30;;;12.80;99.90;;;;;;5082641;28;20496;-85
2021/05/19 09:12:15;;;;;;;22.48;8.25;;;12.70;99.90;;;;;;5064052;28;20044;-85
2021/05/19 09:15:03;;;;;;;22.80;8.98;;;12.50;99.90;;;;;;5064598;28;20038;-85
2021/05/19 09:17:32;;;;;;;18.88;8.68;;;12.40;99.90;;;;;;5064298;28;20055;-85
2021/05/19 09:19:59;;;;;;;22.80;9.43;;;12.20;99.90;;;;;;5063675;28;20031;-84
2021/05/19 09:22:29;;;;;;;18.95;8.35;;;11.70;99.90;;;;;;5079880;28;20019;-85
2021/05/19 09:24:56;;;;;;;18.20;8.77;;;12.10;99.90;;;;;;5061045;28;20506;-85
2021/05/19 09:27:22;;;;;;;17.73;8.55;;;12.10;99.90;;;;;;5061187;28;20473;-84
2021/05/19 09:29:52;;;;;;;14.95;6.03;;;12.00;99.90;;;;;;5059514;28;20104;-87
2021/05/19 09:32:20;;;;;;;9.65;4.93;;;12.00;99.90;;;;;;5058000;28;20488;-87
2021/05/19 09:34:53;;;;;;;11.48;3.13;;;11.90;99.90;;;;;;5076324;28;20497;-88
2021/05/19 09:37:26;;;;;;;13.13;3.33;;;11.70;99.90;;;;;;5059524;28;20557;-87
2021/05/19 09:40:04;;;;;;;5.65;2.13;;;11.50;99.90;;;;;;5059036;28;20422;-86
2021/05/19 09:42:36;;;;;;;2.63;1.23;;;11.50;99.90;;;;;;5058273;28;20046;-85
2021/05/19 09:45:23;;;;;;;5.53;0.45;;;11.30;99.90;;;;;;5057875;28;20032;-87
2021/05/19 09:47:50;;;;;;;2.10;0.10;;;11.00;99.90;;;;;;5058054;28;20024;-87
2021/05/19 09:50:18;;;;;;;0.17;0.00;;;13.10;99.90;;;;;;5057885;28;20111;-87
2021/05/19 09:53:10;;;;;;;1.00;0.20;;;10.70;99.90;;;;;;5057855;28;20025;-87
2021/05/19 09:55:39;;;;;;;1.40;0.08;;;10.50;99.90;;;;;;5075235;28;20048;-87
2021/05/19 09:58:05;;;;;;;3.10;0.40;;;10.50;99.90;;;;;;5075167;28;20028;-88
2021/05/19 10:00:31;;;;;;;1.65;0.20;;;10.20;99.90;;;;;;5075474;28;20038;-86
2021/05/19 10:02:59;;;;;;;2.40;0.22;;;10.00;99.90;;;;;;5057571;28;20067;-87
2021/05/19 10:05:29;;;;;;;0.33;0.23;;;10.30;99.90;;;;;;5057771;28;20058;-86
2021/05/19 10:07:55;;;;;;;2.05;0.17;;;10.40;99.90;;;;;;5057798;28;20266;-87
2021/05/19 10:10:22;;;;;;;1.38;0.30;;;10.50;99.90;;;;;;5057151;28;20087;-87
2021/05/19 10:12:48;;;;;;;7.97;1.52;;;10.50;99.90;;;;;;5057391;28;20021;-87
2021/05/19 10:15:31;;;;;;;3.88;0.22;;;10.50;99.90;;;;;;5056835;28;20044;-87
2021/05/19 10:18:24;;;;;;;2.35;0.20;;;10.50;99.90;;;;;;5075474;28;20025;-87
2021/05/19 10:20:55;;;;;;;2.65;0.35;;;11.40;99.90;;;;;;5045250;28;20041;-88
2021/05/19 10:23:40;;;;;;;2.85;0.20;;;12.20;99.90;;;;;;5057798;28;20024;-87
2021/05/19 10:26:08;;;;;;;0.60;0.10;;;10.70;99.90;;;;;;5057306;28;20052;-87
2021/05/19 10:28:40;;;;;;;1.70;0.10;;;10.70;99.90;;;;;;5057199;28;20044;-87
2021/05/19 10:31:22;;;;;;;0.93;0.20;;;10.70;99.90;;;;;;5057715;28;20020;-85
2021/05/19 10:33:49;;;;;;;1.20;0.10;;;10.80;99.90;;;;;;5057851;28;20027;-85
2021/05/19 10:36:23;;;;;;;1.13;0.10;;;10.90;99.90;;;;;;5057872;28;20078;-87
2021/05/19 10:39:12;;;;;;;2.08;0.17;;;10.90;99.90;;;;;;5058635;28;20055;-84
2021/05/19 10:41:39;;;;;;;0.98;0.20;;;13.60;99.90;;;;;;5057640;28;20036;-87
2021/05/19 10:44:10;;;;;;;3.35;0.75;;;11.10;99.90;;;;;;5058066;28;20052;-87
2021/05/19 10:46:51;;;;;;;2.33;0.35;;;11.10;99.90;;;;;;5058302;28;20031;-86
2021/05/19 10:49:18;;;;;;;3.50;0.10;;;11.20;99.90;;;;;;5057922;28;20046;-86
2021/05/19 10:51:58;;;;;;;3.90;0.38;;;11.30;99.90;;;;;;5058056;28;20017;-86
2021/05/19 10:57:38;;;;;;;1.67;0.30;;;11.60;99.90;;;;;;5082391;28;20066;-87
2021/05/19 11:00:11;;;;;;;2.60;0.25;;;11.80;99.90;;;;;;5078756;28;20029;-87
2021/05/19 11:02:52;;;;;;;1.10;0.40;;;12.10;99.90;;;;;;5058499;28;20028;-87
2021/05/19 11:05:18;;;;;;;1.00;0.13;;;12.20;99.90;;;;;;5078332;28;20035;-86
2021/05/19 11:08:16;;;;;;;0.52;0.20;;;12.40;99.90;;;;;;5078672;28;20111;-86
2021/05/19 11:10:47;;;;;;;1.27;0.20;;;12.70;99.90;;;;;;5017239;28;20063;-84
2021/05/19 11:13:14;;;;;;;1.48;0.45;;;12.90;99.90;;;;;;5060200;28;20267;-84
2021/05/19 11:20:58;;;;;;;2.60;0.40;;;13.90;99.90;;;;;;5081425;28;20037;-84
2021/05/19 11:23:24;;;;;;;1.98;0.20;;;14.10;99.90;;;;;;5081742;28;20032;-86
2021/05/19 11:25:49;;;;;;;1.10;0.10;;;14.40;99.90;;;;;;5082758;28;20012;-86
2021/05/19 11:28:25;;;;;;;0.10;0.00;;;14.80;99.90;;;;;;5085323;28;20036;-86
2021/05/19 11:30:50;;;;;;;1.42;0.10;;;15.20;99.90;;;;;;5074836;28;20040;-85
2021/05/19 11:33:21;;;;;;;0.03;0.00;;;15.90;99.90;;;;;;5097530;28;20025;-86
2021/05/19 11:35:49;;;;;;;0.22;0.20;;;16.50;99.90;;;;;;5076047;28;20020;-85
2021/05/19 11:38:16;;;;;;;0.82;0.00;;;17.10;99.90;;;;;;5077429;28;20096;-85
2021/05/19 11:40:49;;;;;;;0.30;0.00;;;17.40;99.90;;;;;;5088751;28;20074;-85
2021/05/19 11:43:17;;;;;;;0.30;0.00;;;17.40;98.80;;;;;;5071642;28;20035;-85
2021/05/19 11:45:44;;;;;;;0.63;0.07;;;17.40;99.90;;;;;;5069352;28;20017;-85
2021/05/19 11:48:24;;;;;;;0.35;0.00;;;17.50;99.20;;;;;;5087078;28;20100;-85
2021/05/19 11:50:51;;;;;;;1.05;0.00;;;17.50;98.90;;;;;;5068805;28;20020;-85
2021/05/19 11:53:17;;;;;;;0.10;0.00;;;17.30;96.90;;;;;;5069745;28;20111;-85
2021/05/19 11:55:51;;;;;;;0.85;0.10;;;17.00;93.50;;;;;;5068536;28;20031;-86
2021/05/19 11:58:28;;;;;;;1.38;0.00;;;16.80;94.20;;;;;;5068996;28;20050;-85
2021/05/19 12:00:57;;;;;;;0.63;0.00;;;16.50;97.40;;;;;;5086873;28;20020;-86
2021/05/19 12:03:25;;;;;;;2.38;0.08;;;16.60;96.20;;;;;;5069257;28;20084;-85
2021/05/19 12:05:53;;;;;;;0.55;0.13;;;16.40;95.90;;;;;;5087413;28;20040;-85
2021/05/19 12:08:21;;;;;;;0.95;0.38;;;16.30;99.50;;;;;;5078694;28;20050;-86
2021/05/19 12:11:00;;;;;;;1.60;0.00;;;16.10;99.40;;;;;;5078692;28;20020;-85
2021/05/19 12:13:27;;;;;;;0.47;0.00;;;16.00;99.90;;;;;;5094880;28;20024;-85
2021/05/19 12:15:53;;;;;;;1.13;0.00;;;16.00;99.90;;;;;;5075344;28;20025;-86
2021/05/19 12:18:18;;;;;;;3.20;0.05;;;16.00;99.90;;;;;;5074186;28;20031;-86
2021/05/19 12:20:44;;;;;;;1.00;0.10;;;16.10;99.90;;;;;;5073232;28;20020;-85
2021/05/19 12:23:09;;;;;;;2.03;0.03;;;16.20;99.90;;;;;;5071379;28;20028;-86
2021/05/19 12:25:36;;;;;;;1.33;0.10;;;15.90;99.90;;;;;;5071730;28;20024;-86
2021/05/19 12:28:05;;;;;;;1.02;0.00;;;16.10;99.90;;;;;;5070780;28;20058;-87
2021/05/19 12:30:48;;;;;;;1.92;0.00;;;16.20;99.90;;;;;;5070066;28;20024;-86
2021/05/19 12:33:17;;;;;;;0.38;0.10;;;16.30;99.90;;;;;;5069524;28;20025;-86
2021/05/19 12:35:48;;;;;;;0.60;0.00;;;16.00;99.00;;;;;;5070464;28;20075;-86
2021/05/19 12:38:16;;;;;;;0.98;0.30;;;15.80;99.90;;;;;;5068905;28;20028;-86
2021/05/19 12:40:46;;;;;;;0.80;0.03;;;15.90;99.90;;;;;;5069121;28;20024;-86
2021/05/19 12:43:24;;;;;;;0.85;0.00;;;16.00;99.90;;;;;;5068961;28;20427;-86
2021/05/19 12:45:51;;;;;;;;;;;16.40;99.90;;;;;;5087588;28;20016;-86
2021/05/19 12:48:20;;;;;;;0.45;0.15;;;16.70;99.90;;;;;;5069073;28;19912;-86
2021/05/19 12:50:49;;;;;;;2.78;0.25;;;15.90;99.90;;;;;;5069468;28;20024;-86
2021/05/19 12:53:45;;;;;;;1.52;0.57;;;16.00;99.90;;;;;;5069693;28;20017;-86
2021/05/19 12:56:25;;;;;;;2.80;0.73;;;16.00;99.90;;;;;;5070047;28;20413;-86